»·PEaware :: DAL427 KSNA-KPHX

DAL427 :: KSNA-KPHX

FLIGHT INFORMATION

Flight Status: Arrived
Operator:
Delta Air Lines
More flights by this operator :: More flights under this callsign
Pilot: Ben F. (13029)
Aircraft: MCDONNELL-DOUGLAS MD-88
(MD88)
More flights by this aircraft type
Origin: KSNA John Wayne-Orange Co
United States
Destination: KPHX Phoenix Sky Harbor Intl
United States
More flights between these airports :: More routes between these airports
Route: PIGGN2 CNERY BLH HYDRR1
File this flight plan on PilotEdge
Remarks: PBN / A1B2 DOF / 190214 REG / N888SB EET / KZAB0024 OPR / DAL PER / C RMK / TCAS SIMBRIEF
Altitude:
(Current/Filed)
33,000ft
Speed:
(Current/Filed)
450kts
Departed: 14-Feb-19 03:06 PM
Arrived: 14-Feb-19 03:55 PM
Distance/Time
Traveled:
293nm/0:48
Distance/Time
To Go:
Arrived

Flight Plot

Page will automatically refresh every two minutes.

Flight plan parsing failed; only flown route is shown


Map Options




Map Legend


Flown Route
Filed Route
Departure Airport
Arrival Airport
Navaid (VOR, NDB)
Fix

Horizontal Profiles

Position Reports

Time Latitude Longitude Heading Altitude Ground
Speed
14-Feb-19 14:41 33.678573 -117.863044 117 60ft 0kts
14-Feb-19 14:42 33.678573 -117.863044 117 60ft 0kts
14-Feb-19 14:43 33.678573 -117.863044 117 60ft 0kts
14-Feb-19 14:44 33.678573 -117.863044 117 60ft 0kts
14-Feb-19 14:45 33.678573 -117.863044 117 60ft 0kts
14-Feb-19 14:46 33.678573 -117.863044 117 60ft 0kts
14-Feb-19 14:47 33.678573 -117.863044 117 60ft 0kts
14-Feb-19 14:47 33.678573 -117.863044 117 60ft 0kts
14-Feb-19 14:49 33.678573 -117.863044 117 60ft 0kts
14-Feb-19 14:50 33.678573 -117.863044 117 60ft 0kts
14-Feb-19 14:50 33.678573 -117.863044 117 60ft 0kts
14-Feb-19 14:51 33.678573 -117.863044 117 60ft 0kts
14-Feb-19 14:53 33.678573 -117.863044 117 60ft 0kts
14-Feb-19 14:53 33.678573 -117.863044 117 60ft 0kts
14-Feb-19 14:54 33.678677 -117.863570 65 59ft 2kts
14-Feb-19 14:55 33.678476 -117.863808 26 59ft 0kts
14-Feb-19 14:57 33.678476 -117.863808 26 59ft 0kts
14-Feb-19 14:57 33.678476 -117.863808 26 59ft 0kts
14-Feb-19 14:58 33.678476 -117.863808 26 59ft 0kts
14-Feb-19 14:59 33.678476 -117.863808 26 59ft 0kts
14-Feb-19 15:00 33.678476 -117.863808 26 59ft 0kts
14-Feb-19 15:01 33.678529 -117.863773 29 59ft 2kts
14-Feb-19 15:02 33.680570 -117.863014 306 58ft 0kts
14-Feb-19 15:03 33.681213 -117.864375 294 56ft 16kts
14-Feb-19 15:04 33.680922 -117.865477 211 55ft 0kts
14-Feb-19 15:05 33.678023 -117.867356 207 55ft 48kts
14-Feb-19 15:06 33.639222 -117.891493 204 1430ft 237kts
14-Feb-19 15:07 33.572119 -117.899056 175 2958ft 234kts
14-Feb-19 15:08 33.501482 -117.846916 128 3725ft 348kts
14-Feb-19 15:09 33.475594 -117.738587 83 5543ft 296kts
14-Feb-19 15:10 33.498507 -117.659097 62 8018ft 265kts
14-Feb-19 15:11 33.539611 -117.574867 62 10269ft 316kts
14-Feb-19 15:12 33.581821 -117.467093 91 12303ft 372kts
14-Feb-19 15:13 33.543623 -117.353631 118 15305ft 379kts
14-Feb-19 15:14 33.506555 -117.231348 107 17946ft 407kts
14-Feb-19 15:15 33.501794 -117.088776 96 20302ft 435kts
14-Feb-19 15:16 33.498752 -116.938479 95 22414ft 456kts
14-Feb-19 15:17 33.496271 -116.782555 94 24417ft 473kts
14-Feb-19 15:18 33.494286 -116.620687 94 26289ft 489kts
14-Feb-19 15:19 33.492447 -116.453631 95 28580ft 511kts
14-Feb-19 15:20 33.489694 -116.280938 96 31403ft 519kts
14-Feb-19 15:21 33.487058 -116.106692 96 33024ft 519kts
14-Feb-19 15:22 33.513907 -115.936618 70 33041ft 531kts
14-Feb-19 15:23 33.563416 -115.768449 72 33039ft 532kts
14-Feb-19 15:24 33.612459 -115.600379 72 33043ft 530kts
14-Feb-19 15:25 33.626022 -115.430828 117 33078ft 499kts
14-Feb-19 15:26 33.612454 -115.260244 98 33041ft 515kts
14-Feb-19 15:27 33.606542 -115.087303 98 33045ft 520kts
14-Feb-19 15:28 33.600809 -114.912334 98 33050ft 521kts
14-Feb-19 15:29 33.593086 -114.737474 105 33052ft 515kts
14-Feb-19 15:30 33.558872 -114.571806 111 33053ft 510kts
14-Feb-19 15:31 33.525601 -114.403627 110 30384ft 514kts
14-Feb-19 15:32 33.492659 -114.235565 109 27591ft 510kts
14-Feb-19 15:33 33.460504 -114.070457 110 25369ft 490kts
14-Feb-19 15:34 33.430721 -113.914547 110 24087ft 466kts
14-Feb-19 15:35 33.401753 -113.760783 103 24059ft 476kts
14-Feb-19 15:36 33.370892 -113.608844 112 24056ft 468kts
14-Feb-19 15:37 33.336479 -113.456783 109 22217ft 461kts
14-Feb-19 15:38 33.310641 -113.306944 107 20390ft 443kts
14-Feb-19 15:39 33.287469 -113.164170 105 18741ft 421kts
14-Feb-19 15:40 33.274228 -113.034175 90 17731ft 389kts
14-Feb-19 15:41 33.278295 -112.908612 92 15603ft 367kts
14-Feb-19 15:42 33.289431 -112.791598 66 13686ft 350kts
14-Feb-19 15:43 33.329430 -112.690755 68 12131ft 309kts
14-Feb-19 15:44 33.364284 -112.599402 67 10490ft 296kts
14-Feb-19 15:45 33.397790 -112.511779 67 9165ft 272kts
14-Feb-19 15:46 33.426390 -112.431339 71 7678ft 248kts
14-Feb-19 15:47 33.428976 -112.350220 95 6320ft 241kts
14-Feb-19 15:48 33.428769 -112.272741 94 5725ft 201kts
14-Feb-19 15:49 33.428832 -112.210799 94 4734ft 170kts
14-Feb-19 15:50 33.428847 -112.160199 93 3538ft 140kts
14-Feb-19 15:51 33.428853 -112.114146 92 2572ft 138kts
14-Feb-19 15:52 33.428895 -112.068017 92 1825ft 137kts
14-Feb-19 15:53 33.428895 -112.022267 91 1118ft 130kts
14-Feb-19 15:54 33.429321 -112.007994 25 1115ft 7kts
14-Feb-19 15:55 33.430386 -112.006303 12 1115ft 8kts
14-Feb-19 15:56 33.431869 -112.006125 47 1115ft 0kts
14-Feb-19 15:57 33.431869 -112.006125 47 1115ft 0kts
14-Feb-19 15:58 33.431869 -112.006125 47 1115ft 0kts

Navigation Log

Ident Type
Flight plan parsing failed, navigation log unavailable